createdAt,value
2017-06-28T00:00:43.681Z,18.5
2017-06-28T00:01:52.631Z,18.5
2017-06-28T00:03:02.159Z,18.37
2017-06-28T00:04:11.135Z,18.42
2017-06-28T00:05:20.086Z,18.39
2017-06-28T00:06:29.039Z,18.41
2017-06-28T00:07:38.012Z,18.42
2017-06-28T00:08:47.216Z,18.37
2017-06-28T00:09:56.226Z,18.37
2017-06-28T00:11:05.448Z,18.27
2017-06-28T00:12:14.504Z,18.23
2017-06-28T00:13:23.454Z,18.35
2017-06-28T00:14:32.794Z,18.21
2017-06-28T00:15:42.128Z,18.23
2017-06-28T00:16:51.168Z,18.25
2017-06-28T00:18:00.258Z,18.26
2017-06-28T00:19:09.386Z,18.2
2017-06-28T00:20:18.847Z,18.27
2017-06-28T00:21:28.002Z,18.26
2017-06-28T00:22:37.078Z,18.27
2017-06-28T00:23:46.020Z,18.27
2017-06-28T00:24:55.141Z,18.2
2017-06-28T00:26:04.362Z,18.21
2017-06-28T00:27:13.345Z,18.21
2017-06-28T00:28:22.663Z,18.2
2017-06-28T00:29:31.637Z,18.15
2017-06-28T00:30:40.596Z,18.15
2017-06-28T00:31:49.861Z,18.25
2017-06-28T00:32:59.145Z,18.14
2017-06-28T00:34:08.158Z,18.14
2017-06-28T00:35:17.218Z,18.1
2017-06-28T00:36:26.204Z,18.11
2017-06-28T00:37:35.569Z,18.05
2017-06-28T00:38:44.895Z,17.96
2017-06-28T00:39:54.179Z,18.03
2017-06-28T00:41:03.394Z,18.05
2017-06-28T00:42:12.564Z,18.02
2017-06-28T00:43:22.055Z,18.05
2017-06-28T00:44:31.280Z,18
2017-06-28T00:45:40.596Z,18.02
2017-06-28T00:46:50.013Z,17.97
2017-06-28T00:47:59.154Z,17.95
2017-06-28T00:49:08.936Z,17.9
2017-06-28T00:50:18.266Z,17.89
2017-06-28T00:51:27.374Z,17.82
2017-06-28T00:52:36.530Z,17.86
2017-06-28T00:53:45.654Z,17.82
2017-06-28T00:54:55.434Z,17.89
2017-06-28T00:56:04.556Z,17.74
2017-06-28T00:57:13.621Z,17.74
2017-06-28T00:58:22.605Z,17.75
2017-06-28T00:59:31.760Z,17.77
2017-06-28T01:00:41.013Z,17.64
2017-06-28T01:01:50.660Z,17.72
2017-06-28T01:03:00.021Z,17.71
2017-06-28T01:04:08.977Z,17.63
2017-06-28T01:05:18.244Z,17.59
2017-06-28T01:06:27.849Z,17.58
2017-06-28T01:07:36.866Z,17.54
2017-06-28T01:08:46.023Z,17.56
2017-06-28T01:09:55.152Z,17.56
2017-06-28T01:11:04.406Z,17.58
2017-06-28T01:12:13.765Z,17.54
2017-06-28T01:13:22.801Z,17.62
2017-06-28T01:14:31.924Z,17.54
2017-06-28T01:15:40.941Z,17.59
2017-06-28T01:16:50.036Z,17.54
2017-06-28T01:17:59.696Z,17.54
2017-06-28T01:19:08.757Z,17.49
2017-06-28T01:20:17.824Z,17.48
2017-06-28T01:21:27.076Z,17.44
2017-06-28T01:22:36.094Z,17.41
2017-06-28T01:23:45.811Z,17.38
2017-06-28T01:24:54.947Z,17.41
2017-06-28T01:26:04.311Z,17.4
2017-06-28T01:27:14.115Z,17.44
2017-06-28T01:28:23.342Z,17.38
2017-06-28T01:29:32.779Z,17.4
2017-06-28T01:30:41.895Z,17.36
2017-06-28T01:31:51.010Z,17.34
2017-06-28T01:33:00.441Z,17.37
2017-06-28T01:34:09.588Z,17.36
2017-06-28T01:35:18.850Z,17.31
2017-06-28T01:36:28.061Z,17.28
2017-06-28T01:37:37.057Z,17.26
2017-06-28T01:38:46.305Z,17.37
2017-06-28T01:39:55.522Z,17.25
2017-06-28T01:41:04.800Z,17.19
2017-06-28T01:42:13.943Z,17.21
2017-06-28T01:43:23.212Z,17.21
2017-06-28T01:44:32.462Z,17.08
2017-06-28T01:45:41.623Z,17.16
2017-06-28T01:46:51.305Z,17.12
2017-06-28T01:48:00.405Z,17.08
2017-06-28T01:49:09.687Z,17.08
2017-06-28T01:50:18.868Z,17.11
2017-06-28T01:51:28.122Z,17.14
2017-06-28T01:52:37.343Z,17.18
2017-06-28T01:53:46.299Z,17.16
2017-06-28T01:54:55.327Z,17.16
2017-06-28T01:56:04.529Z,17.14
2017-06-28T01:57:13.572Z,17.07
2017-06-28T01:58:23.096Z,17.03
2017-06-28T01:59:32.143Z,17.07
2017-06-28T02:00:41.432Z,17.08
2017-06-28T02:01:50.796Z,17.08
2017-06-28T02:03:00.056Z,17.11
2017-06-28T02:04:09.394Z,17.12
2017-06-28T02:05:18.668Z,17
2017-06-28T02:06:27.709Z,16.98
2017-06-28T02:07:36.846Z,16.91
2017-06-28T02:08:45.896Z,16.94
2017-06-28T02:09:55.180Z,16.98
2017-06-28T02:11:04.127Z,16.93
2017-06-28T02:12:13.112Z,17
2017-06-28T02:13:22.080Z,16.96
2017-06-28T02:14:31.351Z,16.97
2017-06-28T02:15:40.639Z,16.94
2017-06-28T02:16:49.581Z,16.93
2017-06-28T02:17:58.539Z,16.88
2017-06-28T02:19:07.493Z,16.93
2017-06-28T02:20:16.436Z,16.88
2017-06-28T02:21:25.635Z,16.94
2017-06-28T02:22:34.580Z,16.89
2017-06-28T02:23:43.541Z,16.88
2017-06-28T02:24:52.484Z,16.89
2017-06-28T02:26:01.512Z,16.86
2017-06-28T02:27:10.721Z,16.85
2017-06-28T02:28:19.676Z,16.83
2017-06-28T02:29:28.629Z,16.96
2017-06-28T02:30:37.577Z,16.86
2017-06-28T02:31:46.525Z,16.94
2017-06-28T02:32:55.722Z,16.86
2017-06-28T02:34:04.670Z,16.88
2017-06-28T02:35:13.614Z,16.88
2017-06-28T02:36:22.580Z,16.91
2017-06-28T02:37:31.534Z,16.93
2017-06-28T02:38:40.731Z,16.91
2017-06-28T02:39:49.683Z,16.94
2017-06-28T02:40:58.631Z,16.98
2017-06-28T02:42:07.576Z,16.97
2017-06-28T02:43:16.533Z,16.91
2017-06-28T02:44:25.733Z,16.96
2017-06-28T02:45:34.677Z,17
2017-06-28T02:46:43.636Z,16.93
2017-06-28T02:47:52.911Z,16.85
2017-06-28T02:49:01.863Z,16.89
2017-06-28T02:50:11.065Z,16.89
2017-06-28T02:51:20.010Z,16.85
2017-06-28T02:52:28.973Z,16.88
2017-06-28T02:53:37.929Z,16.93
2017-06-28T02:54:46.880Z,16.96
2017-06-28T02:55:56.080Z,16.91
2017-06-28T02:57:05.030Z,16.97
2017-06-28T02:58:13.976Z,16.94
2017-06-28T02:59:22.929Z,16.97
2017-06-28T03:00:31.878Z,16.94
2017-06-28T03:01:41.072Z,17.06
2017-06-28T03:02:50.022Z,16.96
2017-06-28T03:03:58.970Z,16.94
2017-06-28T03:05:07.912Z,17
2017-06-28T03:06:16.854Z,17.04
2017-06-28T03:07:26.114Z,17.11
2017-06-28T03:08:35.079Z,17.12
2017-06-28T03:09:44.354Z,17.08
2017-06-28T03:10:53.304Z,17.12
2017-06-28T03:12:02.573Z,17.07
2017-06-28T03:13:11.780Z,17.06
2017-06-28T03:14:20.732Z,17.08
2017-06-28T03:15:29.682Z,17.08
2017-06-28T03:16:38.630Z,17.11
2017-06-28T03:17:47.580Z,17.14
2017-06-28T03:18:57.106Z,17.03
2017-06-28T03:20:06.070Z,17.11
2017-06-28T03:21:15.030Z,17.11
2017-06-28T03:22:23.973Z,17.07
2017-06-28T03:23:32.918Z,17.11
2017-06-28T03:24:42.116Z,17.04
2017-06-28T03:25:51.059Z,17.15
2017-06-28T03:27:00.041Z,17.12
2017-06-28T03:28:08.979Z,17.15
2017-06-28T03:29:17.935Z,17.14
2017-06-28T03:30:27.144Z,17.14
2017-06-28T03:31:36.094Z,17.15
2017-06-28T03:32:45.046Z,17.11
2017-06-28T03:33:53.993Z,17.04
2017-06-28T03:35:02.944Z,17.04
2017-06-28T03:36:12.139Z,17.07
2017-06-28T03:37:21.123Z,17.11
2017-06-28T03:38:30.074Z,17.11
2017-06-28T03:39:39.020Z,17.15
2017-06-28T03:40:47.964Z,17.16
2017-06-28T03:41:57.537Z,17.08
2017-06-28T03:43:06.492Z,17.14
2017-06-28T03:44:15.444Z,17.15
2017-06-28T03:45:24.399Z,17.22
2017-06-28T03:46:33.349Z,17.19
2017-06-28T03:47:42.546Z,17.18
2017-06-28T03:48:51.492Z,17.22
2017-06-28T03:50:00.446Z,17.22
2017-06-28T03:51:09.400Z,17.19
2017-06-28T03:52:18.353Z,17.19
2017-06-28T03:53:27.552Z,17.26
2017-06-28T03:54:36.828Z,17.26
2017-06-28T03:55:45.786Z,17.26
2017-06-28T03:57:01.010Z,17.28
2017-06-28T03:58:09.957Z,17.28
2017-06-28T03:59:19.240Z,17.16
2017-06-28T04:00:28.185Z,17.12
2017-06-28T04:01:37.127Z,17.19
2017-06-28T04:02:46.078Z,17.19
2017-06-28T04:03:55.037Z,17.25
2017-06-28T04:05:04.286Z,17.15
2017-06-28T04:06:13.227Z,17.21
2017-06-28T04:07:22.174Z,17.23
2017-06-28T04:08:31.126Z,17.21
2017-06-28T04:09:40.080Z,17.23
2017-06-28T04:10:49.357Z,17.19
2017-06-28T04:11:58.305Z,17.19
2017-06-28T04:13:07.268Z,17.21
2017-06-28T04:14:16.222Z,17.28
2017-06-28T04:15:25.170Z,17.21
2017-06-28T04:16:34.362Z,17.23
2017-06-28T04:17:43.316Z,17.26
2017-06-28T04:18:52.264Z,17.18
2017-06-28T04:20:01.253Z,17.19
2017-06-28T04:21:10.199Z,17.28
2017-06-28T04:22:19.393Z,17.23
2017-06-28T04:23:28.348Z,17.18
2017-06-28T04:24:37.304Z,17.22
2017-06-28T04:25:46.338Z,17.19
2017-06-28T04:26:55.283Z,17.19
2017-06-28T04:28:04.540Z,17.15
2017-06-28T04:29:13.486Z,17.15
2017-06-28T04:30:22.438Z,17.16
2017-06-28T04:31:31.386Z,17.07
2017-06-28T04:32:40.333Z,17.11
2017-06-28T04:33:49.593Z,17.12
2017-06-28T04:34:58.553Z,17.11
2017-06-28T04:36:07.584Z,17.07
2017-06-28T04:37:16.533Z,17.12
2017-06-28T04:38:25.484Z,17.07
2017-06-28T04:39:34.746Z,17.15
2017-06-28T04:40:43.734Z,17.19
2017-06-28T04:41:52.690Z,17.12
2017-06-28T04:43:01.959Z,17.16
2017-06-28T04:44:10.904Z,17.16
2017-06-28T04:45:20.107Z,17.19
2017-06-28T04:46:29.056Z,17.11
2017-06-28T04:47:38.004Z,17.15
2017-06-28T04:48:46.955Z,17.16
2017-06-28T04:49:55.990Z,17.19
2017-06-28T04:51:05.241Z,17.18
2017-06-28T04:52:14.195Z,17.18
2017-06-28T04:53:23.148Z,17.16
2017-06-28T04:54:32.106Z,17.18
2017-06-28T04:55:41.139Z,17.15
2017-06-28T04:56:50.716Z,17.11
2017-06-28T04:57:59.745Z,17.14
2017-06-28T04:59:08.785Z,17.08
2017-06-28T05:00:17.741Z,17.15
2017-06-28T05:01:26.700Z,17.08
2017-06-28T05:02:35.943Z,17.16
2017-06-28T05:03:44.979Z,17.12
2017-06-28T05:04:53.938Z,17.19
2017-06-28T05:06:02.882Z,17.11
2017-06-28T05:07:11.835Z,17.14
2017-06-28T05:08:21.028Z,17.14
2017-06-28T05:09:29.983Z,17.14
2017-06-28T05:10:39.026Z,17.21
2017-06-28T05:11:48.063Z,17.07
2017-06-28T05:12:57.006Z,17.06
2017-06-28T05:14:06.260Z,17.12
2017-06-28T05:15:15.218Z,17.07
2017-06-28T05:16:24.162Z,17.18
2017-06-28T05:17:33.110Z,17.16
2017-06-28T05:18:42.053Z,17.16
2017-06-28T05:19:51.309Z,17.19
2017-06-28T05:21:00.258Z,17.36
2017-06-28T05:22:09.210Z,17.34
2017-06-28T05:23:18.154Z,17.28
2017-06-28T05:24:27.109Z,17.28
2017-06-28T05:25:36.354Z,17.3
2017-06-28T05:26:45.318Z,17.33
2017-06-28T05:27:54.262Z,17.34
2017-06-28T05:29:03.215Z,17.34
2017-06-28T05:30:12.261Z,17.41
2017-06-28T05:31:21.505Z,17.44
2017-06-28T05:32:30.458Z,17.44
2017-06-28T05:33:39.748Z,17.4
2017-06-28T05:34:48.712Z,17.49
2017-06-28T05:35:57.760Z,17.54
2017-06-28T05:37:07.006Z,17.48
2017-06-28T05:38:15.950Z,17.55
2017-06-28T05:39:24.897Z,17.55
2017-06-28T05:40:33.853Z,17.56
2017-06-28T05:41:42.804Z,17.63
2017-06-28T05:42:51.999Z,17.58
2017-06-28T05:44:00.946Z,17.68
2017-06-28T05:45:09.909Z,17.68
2017-06-28T05:46:18.864Z,17.71
2017-06-28T05:47:27.812Z,17.78
2017-06-28T05:48:37.007Z,17.7
2017-06-28T05:49:45.959Z,17.77
2017-06-28T05:50:54.912Z,17.75
2017-06-28T05:52:03.860Z,17.89
2017-06-28T05:53:12.841Z,17.81
2017-06-28T05:54:22.098Z,17.84
2017-06-28T05:55:31.046Z,17.89
2017-06-28T05:56:39.999Z,17.9
2017-06-28T05:57:48.950Z,18.05
2017-06-28T05:58:57.901Z,18.02
2017-06-28T06:00:07.153Z,18.03
2017-06-28T06:01:16.097Z,18.14
2017-06-28T06:02:25.048Z,18.14
2017-06-28T06:03:34.080Z,18.25
2017-06-28T06:04:43.029Z,18.15
2017-06-28T06:05:52.614Z,18.25
2017-06-28T06:07:01.558Z,18.39
2017-06-28T06:08:10.498Z,18.32
2017-06-28T06:09:19.450Z,18.41
2017-06-28T06:10:28.401Z,18.3
2017-06-28T06:11:37.650Z,18.47
2017-06-28T06:12:46.600Z,18.41
2017-06-28T06:13:55.954Z,18.41
2017-06-28T06:15:04.903Z,18.51
2017-06-28T06:16:13.852Z,18.58
2017-06-28T06:17:23.055Z,18.65
2017-06-28T06:18:31.998Z,18.63
2017-06-28T06:19:40.951Z,18.67
2017-06-28T06:20:49.910Z,18.72
2017-06-28T06:21:58.861Z,18.76
2017-06-28T06:23:08.059Z,18.78
2017-06-28T06:24:17.024Z,18.78
2017-06-28T06:25:25.968Z,18.85
2017-06-28T06:26:34.917Z,18.92
2017-06-28T06:27:44.187Z,18.9
2017-06-28T06:28:53.443Z,18.94
2017-06-28T06:30:02.397Z,19.04
2017-06-28T06:31:11.343Z,19.04
2017-06-28T06:32:20.374Z,19.02
2017-06-28T06:33:29.322Z,19.16
2017-06-28T06:34:38.940Z,19.11
2017-06-28T06:35:47.882Z,19.25
2017-06-28T06:36:56.829Z,19.16
2017-06-28T06:38:05.786Z,19.29
2017-06-28T06:39:14.739Z,19.32
2017-06-28T06:40:23.989Z,19.33
2017-06-28T06:41:32.938Z,19.37
2017-06-28T06:42:42.220Z,19.4
2017-06-28T06:43:51.167Z,19.47
2017-06-28T06:45:00.130Z,19.54
2017-06-28T06:46:09.385Z,19.5
2017-06-28T06:47:18.332Z,19.55
2017-06-28T06:48:27.283Z,19.51
2017-06-28T06:49:36.283Z,19.62
2017-06-28T06:50:45.237Z,19.59
2017-06-28T06:51:54.439Z,19.69
2017-06-28T06:53:03.388Z,19.73
2017-06-28T06:54:12.335Z,19.63
2017-06-28T06:55:21.279Z,19.71
2017-06-28T06:56:30.235Z,19.68
2017-06-28T06:57:39.813Z,19.76
2017-06-28T06:58:49.094Z,19.77
2017-06-28T06:59:58.062Z,19.77
2017-06-28T07:01:07.012Z,19.94
2017-06-28T07:02:15.968Z,19.94
2017-06-28T07:03:25.168Z,20.02
2017-06-28T07:04:34.112Z,20.03
2017-06-28T07:05:43.069Z,20.01
2017-06-28T07:06:52.344Z,19.99
2017-06-28T07:08:01.299Z,20.11
2017-06-28T07:09:10.548Z,20.11
2017-06-28T07:10:19.492Z,20.16
2017-06-28T07:11:28.440Z,20.16
2017-06-28T07:12:37.727Z,20.13
2017-06-28T07:13:46.687Z,20.16
2017-06-28T07:14:55.940Z,20.29
2017-06-28T07:16:04.897Z,20.33
2017-06-28T07:17:13.855Z,20.31
2017-06-28T07:18:22.812Z,20.41
2017-06-28T07:19:31.850Z,20.47
2017-06-28T07:20:41.106Z,20.54
2017-06-28T07:21:50.382Z,20.52
2017-06-28T07:22:59.339Z,20.48
2017-06-28T07:24:09.228Z,20.64
2017-06-28T07:25:18.356Z,20.61
2017-06-28T07:26:27.604Z,20.58
2017-06-28T07:27:36.550Z,20.69
2017-06-28T07:28:45.511Z,20.74
2017-06-28T07:29:54.659Z,20.76
2017-06-28T07:31:04.477Z,20.79
2017-06-28T07:32:13.883Z,20.84
2017-06-28T07:33:22.836Z,20.88
2017-06-28T07:34:31.785Z,20.87
2017-06-28T07:35:40.832Z,20.88
2017-06-28T07:36:49.778Z,20.85
2017-06-28T07:37:59.124Z,20.95
2017-06-28T07:39:08.158Z,20.95
2017-06-28T07:40:17.193Z,20.99
2017-06-28T07:41:26.153Z,21.04
2017-06-28T07:42:35.100Z,21.16
2017-06-28T07:43:44.314Z,21.14
2017-06-28T07:44:53.595Z,21.22
2017-06-28T07:46:02.559Z,21.19
2017-06-28T07:47:11.509Z,21.31
2017-06-28T07:48:20.478Z,21.21
2017-06-28T07:49:29.680Z,21.4
2017-06-28T07:50:38.637Z,21.38
2017-06-28T07:51:47.583Z,21.38
2017-06-28T07:52:56.540Z,21.47
2017-06-28T07:54:05.489Z,21.49
2017-06-28T07:55:14.693Z,21.56
2017-06-28T07:56:23.646Z,21.62
2017-06-28T07:57:32.598Z,21.61
2017-06-28T07:58:41.552Z,21.56
2017-06-28T07:59:50.832Z,21.58
2017-06-28T08:01:00.034Z,21.71
2017-06-28T08:02:09.076Z,21.72
2017-06-28T08:03:18.036Z,21.69
2017-06-28T08:04:26.984Z,21.77
2017-06-28T08:05:35.937Z,21.84
2017-06-28T08:06:45.183Z,21.82
2017-06-28T08:07:54.146Z,21.86
2017-06-28T08:09:03.100Z,21.84
2017-06-28T08:10:12.375Z,21.94
2017-06-28T08:11:22.240Z,21.94
2017-06-28T08:12:31.487Z,21.92
2017-06-28T08:13:40.436Z,22.03
2017-06-28T08:14:49.391Z,21.98
2017-06-28T08:15:58.370Z,22.07
2017-06-28T08:17:07.330Z,22.17
2017-06-28T08:18:16.613Z,22.15
2017-06-28T08:19:25.569Z,22.2
2017-06-28T08:20:34.612Z,22.28
2017-06-28T08:21:43.561Z,22.3
2017-06-28T08:22:52.507Z,22.3
2017-06-28T08:24:01.758Z,22.4
2017-06-28T08:25:11.013Z,22.46
2017-06-28T08:26:21.041Z,22.46
2017-06-28T08:27:30.866Z,22.55
2017-06-28T08:28:39.824Z,22.67
2017-06-28T08:29:49.022Z,22.64
2017-06-28T08:30:57.981Z,22.7
2017-06-28T08:32:06.931Z,22.72
2017-06-28T08:33:15.978Z,22.67
2017-06-28T08:34:25.246Z,22.8
2017-06-28T08:35:34.445Z,22.86
2017-06-28T08:36:43.399Z,22.9
2017-06-28T08:37:52.670Z,22.98
2017-06-28T08:39:01.631Z,22.95
2017-06-28T08:40:10.673Z,23.01
2017-06-28T08:41:19.965Z,23.02
2017-06-28T08:42:28.920Z,23.07
2017-06-28T08:43:37.872Z,23.1
2017-06-28T08:44:47.642Z,23.2
2017-06-28T08:45:57.070Z,23.19
2017-06-28T08:47:06.421Z,23.27
2017-06-28T08:48:15.462Z,23.27
2017-06-28T08:49:24.422Z,23.33
2017-06-28T08:50:33.370Z,23.39
2017-06-28T08:51:42.467Z,23.42
2017-06-28T08:52:51.905Z,23.43
2017-06-28T08:54:01.394Z,23.48
2017-06-28T08:55:10.442Z,23.55
2017-06-28T08:56:19.600Z,23.55
2017-06-28T08:57:28.727Z,23.54
2017-06-28T08:58:38.217Z,23.6
2017-06-28T08:59:47.494Z,23.63
2017-06-28T09:00:56.736Z,23.68
2017-06-28T09:02:05.909Z,23.87
2017-06-28T09:03:18.049Z,23.79
2017-06-28T09:04:34.306Z,23.9
2017-06-28T09:05:49.243Z,23.85
2017-06-28T09:07:02.926Z,24.03
2017-06-28T09:08:13.407Z,23.98
2017-06-28T09:09:22.364Z,24
2017-06-28T09:10:32.306Z,23.97
2017-06-28T09:11:41.855Z,23.97
2017-06-28T09:12:50.814Z,23.97
2017-06-28T09:14:00.090Z,24.03
2017-06-28T09:15:09.343Z,24.05
2017-06-28T09:16:18.298Z,24.12
2017-06-28T09:17:27.355Z,24.12
2017-06-28T09:18:36.536Z,24.15
2017-06-28T09:19:45.654Z,24.09
2017-06-28T09:20:55.051Z,24.15
2017-06-28T09:22:04.679Z,24.13
2017-06-28T09:23:14.179Z,24.18
2017-06-28T09:24:23.298Z,24.13
2017-06-28T09:25:32.449Z,24.13
2017-06-28T09:26:42.065Z,24.09
2017-06-28T09:27:51.174Z,24.02
2017-06-28T09:29:00.363Z,24.2
2017-06-28T09:30:09.468Z,24.13
2017-06-28T09:31:18.498Z,24.13
2017-06-28T09:32:27.829Z,24.16
2017-06-28T09:33:36.808Z,24.22
2017-06-28T09:34:45.784Z,24.21
2017-06-28T09:35:54.759Z,24.25
2017-06-28T09:37:03.828Z,24.24
2017-06-28T09:38:13.105Z,24.32
2017-06-28T09:39:22.085Z,24.47
2017-06-28T09:40:31.057Z,24.39
2017-06-28T09:41:40.124Z,24.39
2017-06-28T09:42:49.102Z,24.39
2017-06-28T09:43:58.419Z,24.55
2017-06-28T09:45:07.394Z,24.6
2017-06-28T09:46:16.372Z,24.6
2017-06-28T09:47:25.361Z,24.61
2017-06-28T09:48:34.341Z,24.67
2017-06-28T09:49:43.565Z,24.61
2017-06-28T09:50:52.545Z,24.58
2017-06-28T09:52:01.520Z,24.61
2017-06-28T09:53:10.499Z,24.6
2017-06-28T09:54:19.469Z,24.6
2017-06-28T09:55:28.690Z,24.58
2017-06-28T09:56:37.667Z,24.55
2017-06-28T09:57:46.649Z,24.6
2017-06-28T09:58:55.632Z,24.62
2017-06-28T10:00:04.610Z,24.65
2017-06-28T10:01:13.836Z,24.64
2017-06-28T10:02:22.816Z,24.71
2017-06-28T10:03:31.784Z,24.69
2017-06-28T10:04:40.763Z,24.84
2017-06-28T10:05:49.835Z,24.83
2017-06-28T10:06:59.356Z,24.91
2017-06-28T10:08:08.435Z,24.96
2017-06-28T10:09:17.423Z,24.99
2017-06-28T10:10:26.403Z,24.95
2017-06-28T10:11:35.378Z,24.99
2017-06-28T10:12:44.948Z,25.17
2017-06-28T10:13:53.920Z,25
2017-06-28T10:15:02.898Z,25.02
2017-06-28T10:16:11.871Z,25.06
2017-06-28T10:17:20.849Z,25.23
2017-06-28T10:18:30.139Z,25.21
2017-06-28T10:19:39.124Z,25.21
2017-06-28T10:20:48.507Z,25.25
2017-06-28T10:21:57.483Z,25.21
2017-06-28T10:23:06.554Z,25.27
2017-06-28T10:24:15.784Z,25.24
2017-06-28T10:25:24.760Z,25.24
2017-06-28T10:26:33.809Z,25.21
2017-06-28T10:27:42.797Z,25.21
2017-06-28T10:28:51.771Z,25.23
2017-06-28T10:30:01.010Z,25.25
2017-06-28T10:31:09.985Z,25.36
2017-06-28T10:32:18.960Z,25.39
2017-06-28T10:33:27.939Z,25.47
2017-06-28T10:34:36.922Z,25.55
2017-06-28T10:35:46.252Z,25.54
2017-06-28T10:36:55.226Z,25.57
2017-06-28T10:38:04.200Z,25.64
2017-06-28T10:39:13.200Z,25.54
2017-06-28T10:40:22.193Z,25.55
2017-06-28T10:41:31.471Z,25.55
2017-06-28T10:42:40.446Z,25.57
2017-06-28T10:43:49.424Z,25.57
2017-06-28T10:44:58.423Z,25.57
2017-06-28T10:46:07.393Z,25.58
2017-06-28T10:47:16.680Z,25.6
2017-06-28T10:48:25.649Z,25.6
2017-06-28T10:49:34.632Z,25.51
2017-06-28T10:50:43.609Z,25.46
2017-06-28T10:51:52.677Z,25.55
2017-06-28T10:53:02.314Z,25.51
2017-06-28T10:54:11.301Z,25.54
2017-06-28T10:55:20.281Z,25.46
2017-06-28T10:56:29.264Z,25.45
2017-06-28T10:57:38.241Z,25.51
2017-06-28T10:58:47.530Z,25.5
2017-06-28T10:59:56.532Z,25.6
2017-06-28T11:01:05.510Z,25.57
2017-06-28T11:02:14.491Z,25.57
2017-06-28T11:03:23.477Z,25.61
2017-06-28T11:04:32.715Z,25.67
2017-06-28T11:05:41.695Z,25.76
2017-06-28T11:06:50.682Z,25.7
2017-06-28T11:07:59.662Z,25.7
2017-06-28T11:09:08.723Z,25.69
2017-06-28T11:10:18.024Z,25.69
2017-06-28T11:11:27.018Z,25.69
2017-06-28T11:12:35.987Z,25.8
2017-06-28T11:13:44.978Z,25.8
2017-06-28T11:14:53.957Z,25.67
2017-06-28T11:16:03.278Z,25.67
2017-06-28T11:17:12.266Z,25.75
2017-06-28T11:18:21.242Z,25.85
2017-06-28T11:19:30.216Z,25.85
2017-06-28T11:20:39.185Z,25.72
2017-06-28T11:21:48.949Z,25.9
2017-06-28T11:22:58.269Z,25.7
2017-06-28T11:24:07.359Z,25.75
2017-06-28T11:25:16.394Z,25.67
2017-06-28T11:26:25.356Z,25.62
2017-06-28T11:27:34.768Z,25.55
2017-06-28T11:28:43.911Z,25.55
2017-06-28T11:29:52.891Z,25.54
2017-06-28T11:31:01.970Z,25.58
2017-06-28T11:32:10.991Z,25.58
2017-06-28T11:33:20.487Z,25.72
2017-06-28T11:34:29.683Z,25.73
2017-06-28T11:35:38.779Z,25.73
2017-06-28T11:36:47.844Z,25.82
2017-06-28T11:37:57.030Z,25.72
2017-06-28T11:39:06.573Z,25.91
2017-06-28T11:40:15.651Z,25.91
2017-06-28T11:41:24.814Z,25.91
2017-06-28T11:42:33.968Z,26.07
2017-06-28T11:43:43.036Z,26.06
2017-06-28T11:44:52.669Z,26.05
2017-06-28T11:46:01.726Z,26.17
2017-06-28T11:47:10.875Z,26.06
2017-06-28T11:48:19.896Z,26.18
2017-06-28T11:49:29.174Z,26.17
2017-06-28T11:50:39.118Z,26.2
2017-06-28T11:51:48.332Z,26.23
2017-06-28T11:52:57.383Z,26.23
2017-06-28T11:54:06.991Z,26.23
2017-06-28T11:55:16.056Z,26.26
2017-06-28T11:56:25.309Z,26.29
2017-06-28T11:57:34.269Z,26.2
2017-06-28T11:58:43.224Z,26.3
2017-06-28T11:59:52.203Z,26.21
2017-06-28T12:01:01.168Z,26.3
2017-06-28T12:02:10.377Z,26.23
2017-06-28T12:03:19.412Z,26.23
2017-06-28T12:04:28.370Z,26.23
2017-06-28T12:05:37.323Z,26.26
2017-06-28T12:06:46.273Z,26.33
2017-06-28T12:07:55.472Z,26.28
2017-06-28T12:09:04.428Z,26.21
2017-06-28T12:10:13.390Z,26.2
2017-06-28T12:11:22.344Z,26.21
2017-06-28T12:12:31.718Z,26.25
2017-06-28T12:13:41.097Z,26.21
2017-06-28T12:14:50.189Z,26.28
2017-06-28T12:16:00.377Z,26.35
2017-06-28T12:17:09.346Z,26.28
2017-06-28T12:18:18.324Z,26.29
2017-06-28T12:19:27.592Z,26.2
2017-06-28T12:20:39.197Z,26.28
2017-06-28T12:21:53.513Z,26.06
2017-06-28T12:23:10.169Z,26.12
2017-06-28T12:24:28.160Z,26.1
2017-06-28T12:25:39.272Z,25.99
2017-06-28T12:26:48.239Z,26.02
2017-06-28T12:27:58.130Z,26.1
2017-06-28T12:29:07.079Z,26.06
2017-06-28T12:30:16.379Z,26.15
2017-06-28T12:31:25.468Z,26.15
2017-06-28T12:32:34.427Z,26.23
2017-06-28T12:33:44.690Z,26.29
2017-06-28T12:34:54.144Z,26.18
2017-06-28T12:36:03.453Z,26.28
2017-06-28T12:37:12.573Z,26.29
2017-06-28T12:38:21.517Z,26.33
2017-06-28T12:39:30.474Z,26.4
2017-06-28T12:40:39.431Z,26.5
2017-06-28T12:41:48.697Z,26.47
2017-06-28T12:42:57.732Z,26.45
2017-06-28T12:44:06.693Z,26.48
2017-06-28T12:45:15.650Z,26.45
2017-06-28T12:46:24.601Z,26.47
2017-06-28T12:47:33.871Z,26.37
2017-06-28T12:48:42.889Z,26.36
2017-06-28T12:49:51.844Z,26.25
2017-06-28T12:51:00.797Z,26.29
2017-06-28T12:52:09.756Z,26.3
2017-06-28T12:53:18.999Z,26.29
2017-06-28T12:54:28.047Z,26.28
2017-06-28T12:55:37.004Z,26.23
2017-06-28T12:56:46.040Z,26.21
2017-06-28T12:57:55.007Z,26.23
2017-06-28T12:59:04.303Z,26.12
2017-06-28T13:00:13.264Z,26.07
2017-06-28T13:01:22.219Z,26.13
2017-06-28T13:02:31.180Z,26.15
2017-06-28T13:03:40.135Z,26.13
2017-06-28T13:04:49.486Z,26.06
2017-06-28T13:05:58.452Z,26.13
2017-06-28T13:07:07.404Z,26.02
2017-06-28T13:08:16.355Z,26.01
2017-06-28T13:09:25.310Z,25.99
2017-06-28T13:10:34.598Z,25.99
2017-06-28T13:11:43.549Z,25.98
2017-06-28T13:12:52.510Z,25.95
2017-06-28T13:14:01.470Z,25.9
2017-06-28T13:15:10.423Z,25.88
2017-06-28T13:16:19.679Z,25.88
2017-06-28T13:17:29.033Z,25.9
2017-06-28T13:18:37.993Z,25.88
2017-06-28T13:19:46.947Z,25.88
2017-06-28T13:20:55.905Z,25.87
2017-06-28T13:22:05.108Z,25.88
2017-06-28T13:23:14.064Z,25.95
2017-06-28T13:24:23.347Z,25.94
2017-06-28T13:25:32.305Z,25.97
2017-06-28T13:26:41.255Z,26.1
2017-06-28T13:27:50.456Z,26.17
2017-06-28T13:28:59.424Z,26.1
2017-06-28T13:30:08.383Z,26.07
2017-06-28T13:31:17.338Z,26.1
2017-06-28T13:32:26.288Z,26.1
2017-06-28T13:33:35.500Z,26.23
2017-06-28T13:34:44.782Z,26.18
2017-06-28T13:35:53.739Z,26.17
2017-06-28T13:37:02.701Z,26.15
2017-06-28T13:38:11.657Z,26.21
2017-06-28T13:39:21.181Z,26.12
2017-06-28T13:40:30.134Z,26.17
2017-06-28T13:41:39.093Z,26.06
2017-06-28T13:42:48.053Z,26.13
2017-06-28T13:43:57.003Z,26.06
2017-06-28T13:45:06.210Z,25.9
2017-06-28T13:46:15.168Z,25.85
2017-06-28T13:47:24.123Z,25.91
2017-06-28T13:48:33.077Z,25.77
2017-06-28T13:49:42.033Z,25.8
2017-06-28T13:50:51.291Z,25.76
2017-06-28T13:52:00.243Z,25.65
2017-06-28T13:53:09.204Z,25.62
2017-06-28T13:54:18.241Z,25.61
2017-06-28T13:55:27.201Z,25.61
2017-06-28T13:56:36.410Z,25.52
2017-06-28T13:57:45.365Z,25.5
2017-06-28T13:58:54.320Z,25.54
2017-06-28T14:00:03.286Z,25.36
2017-06-28T14:01:12.238Z,25.45
2017-06-28T14:02:21.452Z,25.42
2017-06-28T14:03:30.411Z,25.4
2017-06-28T14:04:39.857Z,25.39
2017-06-28T14:05:48.811Z,25.38
2017-06-28T14:06:57.767Z,25.33
2017-06-28T14:08:07.020Z,25.27
2017-06-28T14:09:15.978Z,25.25
2017-06-28T14:10:25.013Z,25.3
2017-06-28T14:11:33.962Z,25.25
2017-06-28T14:12:42.920Z,25.15
2017-06-28T14:13:52.126Z,25
2017-06-28T14:15:01.118Z,24.78
2017-06-28T14:16:10.071Z,24.46
2017-06-28T14:17:19.031Z,24.31
2017-06-28T14:18:27.989Z,24.05
2017-06-28T14:19:37.591Z,23.72
2017-06-28T14:20:46.546Z,23.63
2017-06-28T14:21:55.496Z,23.48
2017-06-28T14:23:04.458Z,23.46
2017-06-28T14:24:13.502Z,23.31
2017-06-28T14:25:22.760Z,23.22
2017-06-28T14:26:31.716Z,23.15
2017-06-28T14:27:40.675Z,23
2017-06-28T14:28:49.634Z,22.92
2017-06-28T14:29:58.588Z,22.92
2017-06-28T14:31:07.821Z,22.83
2017-06-28T14:32:16.783Z,22.88
2017-06-28T14:33:26.057Z,22.76
2017-06-28T14:34:35.010Z,22.77
2017-06-28T14:35:43.972Z,22.7
2017-06-28T14:36:53.174Z,22.72
2017-06-28T14:38:02.138Z,22.67
2017-06-28T14:39:11.095Z,22.58
2017-06-28T14:40:20.051Z,22.46
2017-06-28T14:41:29.009Z,22.47
2017-06-28T14:42:38.254Z,22.52
2017-06-28T14:43:47.214Z,22.49
2017-06-28T14:44:56.162Z,22.46
2017-06-28T14:46:05.114Z,22.42
2017-06-28T14:47:14.478Z,22.37
2017-06-28T14:48:23.747Z,22.33
2017-06-28T14:49:32.701Z,22.43
2017-06-28T14:50:41.655Z,22.37
2017-06-28T14:51:50.610Z,22.4
2017-06-28T14:52:59.565Z,22.4
2017-06-28T14:54:08.821Z,22.4